Main page
METAR-TAF:

METAR-TAF

Airports :

Riga International Airport

Riga, Latvia

latitude: 56-55N, longitude: 023-58E, elevation: 10 m

Current weather observation

The report was made 27 minutes ago, at 20:20 UTC
Wind 7 kt from the Northwest, varying between West and North/Northwest
Temperature 4°C
Humidity 70%
Pressure 1017 hPa
Visibility 10 km or more
no clouds below 1500 m and no cumulonimbus

METAR: EVRA 092020Z 31007KT 270V340 CAVOK 04/M01 Q1017 NOSIG

Time: 23:47 (20:47 UTC)

Forecast

The report was made 46 minutes ago, at 20:01 UTC
Forecast valid from 09 at 21 UTC to 10 at 21 UTC
Wind 10 kt from the Northwest
Visibility 10 km or more
no clouds below 1500 m and no cumulonimbus

TAF: EVRA 092001Z 0921/1021 31010KT CAVOK

Weather observations and forecasts of more than 4000 airports (METAR and TAF reports).

The available stations are represented by yellow and red dots on the map.

Hover mouse over dot to see the name of the station.

Then click to see weather observations and forecasts.

To change the map : click on the green buttons with a black cross to zoom in, on the green button with a dash to zoom out, or on the green arrows for adjacent maps.


METAR-TAF: